createdAt,value
2023-03-23T00:00:46.551Z,99550.66
2023-03-23T00:01:53.277Z,99548.44
2023-03-23T00:02:56.140Z,99553.97
2023-03-23T00:03:59.883Z,99537.38
2023-03-23T00:05:04.376Z,99542.91
2023-03-23T00:06:08.225Z,99551.72
2023-03-23T00:07:10.943Z,99540.94
2023-03-23T00:08:13.971Z,99548.13
2023-03-23T00:09:17.189Z,99550.91
2023-03-23T00:10:19.706Z,99542.59
2023-03-23T00:11:27.772Z,99548.66
2023-03-23T00:12:35.988Z,99544.78
2023-03-23T00:13:39.347Z,99540.09
2023-03-23T00:14:42.772Z,99551.16
2023-03-23T00:15:45.341Z,99551.97
2023-03-23T00:16:48.326Z,99546.97
2023-03-23T00:17:51.065Z,99549.75
2023-03-23T00:18:54.698Z,99551.38
2023-03-23T00:19:57.390Z,99549.16
2023-03-23T00:20:59.705Z,99546.94
2023-03-23T00:22:02.877Z,99543.31
2023-03-23T00:23:05.284Z,99542.22
2023-03-23T00:24:14.385Z,99547.44
2023-03-23T00:25:18.225Z,99549.91
2023-03-23T00:26:21.037Z,99546.88
2023-03-23T00:27:24.276Z,99549.34
2023-03-23T00:28:28.190Z,99551.00
2023-03-23T00:29:30.998Z,99549.88
2023-03-23T00:30:36.533Z,99547.66
2023-03-23T00:31:38.975Z,99545.69
2023-03-23T00:32:41.348Z,99544.56
2023-03-23T00:33:45.179Z,99544.28
2023-03-23T00:34:50.668Z,99546.75
2023-03-23T00:35:53.856Z,99538.44
2023-03-23T00:36:57.929Z,99551.72
2023-03-23T00:38:00.960Z,99548.66
2023-03-23T00:39:05.189Z,99542.00
2023-03-23T00:40:10.977Z,99538.94
2023-03-23T00:41:13.907Z,99540.59
2023-03-23T00:42:17.826Z,99537.53
2023-03-23T00:43:20.889Z,99536.41
2023-03-23T00:44:24.656Z,99538.88
2023-03-23T00:45:27.925Z,99530.31
2023-03-23T00:46:31.304Z,99530.00
2023-03-23T00:47:37.269Z,99532.50
2023-03-23T00:48:45.867Z,99526.66
2023-03-23T00:49:48.965Z,99525.50
2023-03-23T00:50:52.939Z,99531.59
2023-03-23T00:51:58.870Z,99534.06
2023-03-23T00:53:02.208Z,99528.22
2023-03-23T00:54:05.064Z,99524.34
2023-03-23T00:55:08.537Z,99522.13
2023-03-23T00:56:11.048Z,99522.94
2023-03-23T00:57:13.765Z,99522.94
2023-03-23T00:58:17.006Z,99527.34
2023-03-23T00:59:20.381Z,99519.59
2023-03-23T01:00:24.502Z,99523.16
2023-03-23T01:01:27.039Z,99510.97
2023-03-23T01:02:29.285Z,99505.13
2023-03-23T01:03:31.753Z,99516.75
2023-03-23T01:04:38.161Z,99518.38
2023-03-23T01:05:42.091Z,99512.84
2023-03-23T01:06:45.781Z,99516.44
2023-03-23T01:07:49.659Z,99510.59
2023-03-23T01:08:51.947Z,99502.28
2023-03-23T01:09:55.400Z,99506.72
2023-03-23T01:11:05.255Z,99500.03
2023-03-23T01:12:09.324Z,99505.56
2023-03-23T01:13:12.102Z,99503.63
2023-03-23T01:14:16.059Z,99500.88
2023-03-23T01:15:19.982Z,99498.09
2023-03-23T01:16:23.220Z,99498.91
2023-03-23T01:17:25.516Z,99498.09
2023-03-23T01:18:33.771Z,99489.78
2023-03-23T01:19:36.542Z,99491.44
2023-03-23T01:20:38.910Z,99479.81
2023-03-23T01:21:41.237Z,99477.84
2023-03-23T01:22:43.988Z,99486.16
2023-03-23T01:23:47.758Z,99481.47
2023-03-23T01:24:50.072Z,99482.59
2023-03-23T01:25:55.667Z,99475.09
2023-03-23T01:27:03.069Z,99475.38
2023-03-23T01:28:05.774Z,99476.22
2023-03-23T01:29:08.244Z,99471.00
2023-03-23T01:30:13.648Z,99477.34
2023-03-23T01:31:20.678Z,99472.91
2023-03-23T01:32:26.173Z,99478.75
2023-03-23T01:33:29.757Z,99468.78
2023-03-23T01:34:34.433Z,99467.97
2023-03-23T01:35:39.046Z,99466.31
2023-03-23T01:36:42.830Z,99466.63
2023-03-23T01:37:48.611Z,99464.97
2023-03-23T01:38:53.123Z,99474.09
2023-03-23T01:39:57.504Z,99463.00
2023-03-23T01:41:00.076Z,99459.44
2023-03-23T01:42:02.561Z,99451.41
2023-03-23T01:43:14.236Z,99459.72
2023-03-23T01:44:17.985Z,99462.50
2023-03-23T01:45:38.717Z,99460.03
2023-03-23T01:46:41.347Z,99463.06
2023-03-23T01:47:44.805Z,99458.69
2023-03-23T01:48:48.182Z,99464.22
2023-03-23T01:49:51.912Z,99465.34
2023-03-23T01:51:03.758Z,99460.09
2023-03-23T01:52:18.450Z,99464.78
2023-03-23T01:53:26.331Z,99464.78
2023-03-23T01:54:31.154Z,99452.59
2023-03-23T01:55:49.970Z,99459.56
2023-03-23T01:57:01.278Z,99451.56
2023-03-23T01:58:04.050Z,99459.88
2023-03-23T01:59:06.425Z,99455.75
2023-03-23T02:00:15.559Z,99462.09
2023-03-23T02:01:29.711Z,99456.84
2023-03-23T02:02:33.899Z,99456.03
2023-03-23T02:03:42.721Z,99457.16
2023-03-23T02:04:45.593Z,99456.34
2023-03-23T02:05:47.883Z,99461.03
2023-03-23T02:07:05.366Z,99465.72
2023-03-23T02:08:09.908Z,99461.31
2023-03-23T02:09:19.048Z,99462.41
2023-03-23T02:10:28.252Z,99462.41
2023-03-23T02:11:31.502Z,99454.13
2023-03-23T02:12:35.063Z,99458.00
2023-03-23T02:13:38.451Z,99457.19
2023-03-23T02:14:40.975Z,99461.06
2023-03-23T02:15:52.543Z,99458.28
2023-03-23T02:17:04.428Z,99455.84
2023-03-23T02:18:22.153Z,99454.72
2023-03-23T02:19:43.692Z,99452.25
2023-03-23T02:21:01.260Z,99455.84
2023-03-23T02:22:41.359Z,99447.81
2023-03-23T02:24:14.754Z,99453.38
2023-03-23T02:25:24.381Z,99452.50
2023-03-23T02:26:39.043Z,99447.28
2023-03-23T02:28:04.264Z,99446.47
2023-03-23T02:29:27.159Z,99446.47
2023-03-23T02:31:22.475Z,99450.34
2023-03-23T02:33:00.105Z,99451.16
2023-03-23T02:34:10.989Z,99453.94
2023-03-23T02:35:39.887Z,99449.81
2023-03-23T02:36:51.918Z,99448.69
2023-03-23T02:38:01.904Z,99450.94
2023-03-23T02:39:14.055Z,99449.81
2023-03-23T02:40:22.420Z,99451.75
2023-03-23T02:41:31.344Z,99451.22
2023-03-23T02:42:35.663Z,99446.53
2023-03-23T02:43:45.854Z,99451.22
2023-03-23T02:44:49.728Z,99447.66
2023-03-23T02:45:54.647Z,99444.88
2023-03-23T02:47:00.492Z,99448.44
2023-03-23T02:48:05.480Z,99455.13
2023-03-23T02:49:15.666Z,99449.59
2023-03-23T02:50:21.234Z,99450.72
2023-03-23T02:51:26.707Z,99450.72
2023-03-23T02:52:31.456Z,99454.59
2023-03-23T02:53:37.883Z,99450.72
2023-03-23T02:54:43.754Z,99448.75
2023-03-23T02:55:47.340Z,99450.72
2023-03-23T02:56:55.229Z,99444.06
2023-03-23T02:58:03.430Z,99447.09
2023-03-23T02:59:05.756Z,99440.75
2023-03-23T03:00:13.335Z,99442.69
2023-03-23T03:01:37.917Z,99443.53
2023-03-23T03:02:48.647Z,99443.00
2023-03-23T03:03:52.586Z,99432.75
2023-03-23T03:05:13.977Z,99431.94
2023-03-23T03:06:38.151Z,99432.75
2023-03-23T03:08:20.291Z,99434.69
2023-03-23T03:09:45.343Z,99431.09
2023-03-23T03:10:55.895Z,99429.44
2023-03-23T03:12:11.365Z,99432.50
2023-03-23T03:13:33.070Z,99424.50
2023-03-23T03:14:50.525Z,99429.22
2023-03-23T03:16:33.379Z,99426.44
2023-03-23T03:17:44.616Z,99423.94
2023-03-23T03:18:52.390Z,99421.19
2023-03-23T03:20:11.039Z,99430.34
2023-03-23T03:21:18.257Z,99422.31
2023-03-23T03:22:23.844Z,99421.47
2023-03-23T03:23:28.379Z,99419.81
2023-03-23T03:24:37.174Z,99422.59
2023-03-23T03:25:48.357Z,99420.13
2023-03-23T03:27:00.488Z,99415.44
2023-03-23T03:28:11.475Z,99416.25
2023-03-23T03:29:31.630Z,99422.09
2023-03-23T03:30:37.783Z,99417.66
2023-03-23T03:31:46.676Z,99422.38
2023-03-23T03:32:54.793Z,99422.38
2023-03-23T03:34:00.142Z,99425.97
2023-03-23T03:35:04.000Z,99421.53
2023-03-23T03:36:12.357Z,99417.13
2023-03-23T03:37:16.749Z,99413.53
2023-03-23T03:38:19.479Z,99414.34
2023-03-23T03:39:22.743Z,99417.97
2023-03-23T03:40:25.286Z,99419.88
2023-03-23T03:41:29.073Z,99414.06
2023-03-23T03:42:33.197Z,99409.34
2023-03-23T03:43:36.534Z,99413.22
2023-03-23T03:44:40.145Z,99416.84
2023-03-23T03:45:44.116Z,99411.31
2023-03-23T03:46:47.420Z,99421.25
2023-03-23T03:47:51.065Z,99417.34
2023-03-23T03:48:54.381Z,99418.19
2023-03-23T03:49:57.368Z,99411.00
2023-03-23T03:51:01.675Z,99417.34
2023-03-23T03:52:08.127Z,99413.78
2023-03-23T03:53:15.688Z,99420.13
2023-03-23T03:54:18.654Z,99411.81
2023-03-23T03:55:24.282Z,99420.97
2023-03-23T03:56:27.363Z,99416.25
2023-03-23T03:57:42.848Z,99412.38
2023-03-23T03:58:47.680Z,99411.50
2023-03-23T04:00:35.115Z,99414.84
2023-03-23T04:01:39.415Z,99418.41
2023-03-23T04:02:53.033Z,99414.00
2023-03-23T04:04:01.608Z,99420.06
2023-03-23T04:05:11.366Z,99416.50
2023-03-23T04:06:14.058Z,99421.19
2023-03-23T04:07:20.086Z,99421.72
2023-03-23T04:08:26.043Z,99415.38
2023-03-23T04:09:29.617Z,99417.00
2023-03-23T04:10:33.162Z,99417.84
2023-03-23T04:11:36.586Z,99418.66
2023-03-23T04:12:59.008Z,99416.72
2023-03-23T04:14:26.030Z,99412.81
2023-03-23T04:15:31.144Z,99412.53
2023-03-23T04:16:35.742Z,99404.75
2023-03-23T04:17:41.959Z,99405.03
2023-03-23T04:18:44.893Z,99401.16
2023-03-23T04:20:07.740Z,99412.75
2023-03-23T04:21:10.130Z,99404.44
2023-03-23T04:22:13.009Z,99403.31
2023-03-23T04:23:21.684Z,99401.38
2023-03-23T04:24:56.051Z,99401.38
2023-03-23T04:25:58.341Z,99400.25
2023-03-23T04:27:06.664Z,99393.59
2023-03-23T04:28:12.361Z,99389.19
2023-03-23T04:29:23.491Z,99396.06
2023-03-23T04:30:44.720Z,99397.19
2023-03-23T04:31:48.110Z,99399.69
2023-03-23T04:33:06.482Z,99399.69
2023-03-23T04:34:09.112Z,99401.59
2023-03-23T04:35:20.272Z,99402.97
2023-03-23T04:36:57.091Z,99399.38
2023-03-23T04:38:03.832Z,99401.03
2023-03-23T04:39:10.777Z,99401.84
2023-03-23T04:40:16.630Z,99409.03
2023-03-23T04:41:25.839Z,99405.16
2023-03-23T04:42:39.225Z,99405.97
2023-03-23T04:44:06.644Z,99409.28
2023-03-23T04:45:22.786Z,99405.66
2023-03-23T04:46:31.096Z,99410.09
2023-03-23T04:47:41.822Z,99409.28
2023-03-23T04:48:55.980Z,99406.22
2023-03-23T04:50:06.172Z,99389.59
2023-03-23T04:51:15.916Z,99398.72
2023-03-23T04:52:22.573Z,99394.81
2023-03-23T04:53:31.602Z,99391.78
2023-03-23T04:54:34.559Z,99395.41
2023-03-23T04:55:38.416Z,99389.00
2023-03-23T04:56:43.386Z,99389.00
2023-03-23T04:57:49.826Z,99390.66
2023-03-23T04:59:29.004Z,99392.63
2023-03-23T05:00:41.125Z,99383.16
2023-03-23T05:01:46.798Z,99388.72
2023-03-23T05:03:10.919Z,99378.78
2023-03-23T05:04:17.706Z,99379.59
2023-03-23T05:05:43.992Z,99374.84
2023-03-23T05:06:47.093Z,99376.81
2023-03-23T05:07:58.324Z,99379.59
2023-03-23T05:09:04.660Z,99384.81
2023-03-23T05:10:09.026Z,99387.59
2023-03-23T05:11:11.321Z,99393.13
2023-03-23T05:12:17.464Z,99396.22
2023-03-23T05:13:34.018Z,99401.75
2023-03-23T05:14:37.787Z,99389.56
2023-03-23T05:15:47.324Z,99392.31
2023-03-23T05:16:50.838Z,99408.94
2023-03-23T05:17:55.381Z,99409.75
2023-03-23T05:19:00.636Z,99405.06
2023-03-23T05:20:12.094Z,99401.44
2023-03-23T05:21:17.929Z,99402.28
2023-03-23T05:22:28.252Z,99396.75
2023-03-23T05:23:32.105Z,99391.22
2023-03-23T05:24:43.782Z,99392.81
2023-03-23T05:25:54.255Z,99401.13
2023-03-23T05:26:56.670Z,99400.31
2023-03-23T05:28:05.604Z,99393.97
2023-03-23T05:29:25.250Z,99393.13
2023-03-23T05:30:33.480Z,99398.38
2023-03-23T05:31:36.001Z,99395.09
2023-03-23T05:32:38.770Z,99396.75
2023-03-23T05:34:10.772Z,99389.56
2023-03-23T05:35:21.685Z,99391.22
2023-03-23T05:36:25.905Z,99393.97
2023-03-23T05:37:47.230Z,99396.75
2023-03-23T05:38:52.979Z,99398.38
2023-03-23T05:39:56.606Z,99401.13
2023-03-23T05:41:26.895Z,99403.91
2023-03-23T05:42:29.296Z,99398.38
2023-03-23T05:43:40.086Z,99404.75
2023-03-23T05:44:55.234Z,99394.47
2023-03-23T05:46:00.806Z,99389.25
2023-03-23T05:47:04.603Z,99394.78
2023-03-23T05:48:07.082Z,99394.78
2023-03-23T05:49:10.050Z,99400.31
2023-03-23T05:50:15.389Z,99402.28
2023-03-23T05:51:20.003Z,99401.44
2023-03-23T05:52:22.686Z,99409.44
2023-03-23T05:53:25.305Z,99393.97
2023-03-23T05:54:31.716Z,99400.31
2023-03-23T05:55:33.985Z,99397.56
2023-03-23T05:56:45.215Z,99403.91
2023-03-23T05:57:59.567Z,99398.38
2023-03-23T05:59:10.090Z,99392.53
2023-03-23T06:00:23.649Z,99399.72
2023-03-23T06:01:34.495Z,99403.59
2023-03-23T06:02:37.079Z,99406.09
2023-03-23T06:03:39.524Z,99403.59
2023-03-23T06:05:00.796Z,99412.75
2023-03-23T06:06:07.610Z,99406.91
2023-03-23T06:07:24.572Z,99410.50
2023-03-23T06:08:36.438Z,99409.69
2023-03-23T06:09:42.945Z,99407.72
2023-03-23T06:11:06.326Z,99409.38
2023-03-23T06:12:13.701Z,99401.06
2023-03-23T06:13:41.941Z,99407.16
2023-03-23T06:14:48.943Z,99404.38
2023-03-23T06:15:59.977Z,99403.25
2023-03-23T06:17:18.583Z,99394.34
2023-03-23T06:18:23.137Z,99396.00
2023-03-23T06:20:11.027Z,99400.13
2023-03-23T06:21:18.539Z,99394.28
2023-03-23T06:22:30.324Z,99394.81
2023-03-23T06:23:34.743Z,99387.31
2023-03-23T06:24:39.997Z,99387.84
2023-03-23T06:25:48.072Z,99386.41
2023-03-23T06:26:54.536Z,99386.13
2023-03-23T06:28:01.505Z,99382.72
2023-03-23T06:29:12.069Z,99386.84
2023-03-23T06:30:20.576Z,99387.38
2023-03-23T06:31:23.612Z,99391.50
2023-03-23T06:32:30.175Z,99385.66
2023-03-23T06:33:32.838Z,99388.94
2023-03-23T06:34:54.226Z,99394.72
2023-03-23T06:36:16.984Z,99395.75
2023-03-23T06:37:46.680Z,99401.53
2023-03-23T06:38:55.661Z,99397.31
2023-03-23T06:40:10.884Z,99398.69
2023-03-23T06:41:15.258Z,99394.78
2023-03-23T06:42:17.946Z,99398.91
2023-03-23T06:43:25.580Z,99400.75
2023-03-23T06:44:27.977Z,99408.78
2023-03-23T06:45:34.438Z,99408.50
2023-03-23T06:47:06.820Z,99406.75
2023-03-23T06:48:12.330Z,99409.22
2023-03-23T06:49:14.731Z,99405.81
2023-03-23T06:50:24.878Z,99421.03
2023-03-23T06:51:28.776Z,99416.84
2023-03-23T06:52:32.121Z,99420.97
2023-03-23T06:53:36.487Z,99415.94
2023-03-23T06:54:41.413Z,99419.53
2023-03-23T06:55:47.230Z,99417.81
2023-03-23T06:56:51.784Z,99415.53
2023-03-23T06:57:55.561Z,99423.25
2023-03-23T06:58:59.610Z,99419.34
2023-03-23T07:00:06.536Z,99422.34
2023-03-23T07:01:14.553Z,99428.13
2023-03-23T07:02:22.820Z,99427.53
2023-03-23T07:03:28.976Z,99424.44
2023-03-23T07:04:33.541Z,99432.19
2023-03-23T07:05:47.929Z,99425.22
2023-03-23T07:06:53.061Z,99427.34
2023-03-23T07:07:55.343Z,99429.81
2023-03-23T07:09:05.979Z,99432.00
2023-03-23T07:10:11.942Z,99440.84
2023-03-23T07:11:14.989Z,99428.63
2023-03-23T07:12:17.655Z,99432.72
2023-03-23T07:13:23.235Z,99433.25
2023-03-23T07:14:31.957Z,99437.06
2023-03-23T07:15:34.721Z,99448.34
2023-03-23T07:16:37.732Z,99442.22
2023-03-23T07:17:41.032Z,99458.25
2023-03-23T07:18:55.484Z,99441.28
2023-03-23T07:19:57.991Z,99437.06
2023-03-23T07:21:02.307Z,99430.91
2023-03-23T07:22:08.597Z,99439.47
2023-03-23T07:23:11.105Z,99438.03
2023-03-23T07:24:30.326Z,99437.41
2023-03-23T07:25:47.021Z,99449.22
2023-03-23T07:26:54.723Z,99447.78
2023-03-23T07:27:57.357Z,99443.88
2023-03-23T07:28:59.742Z,99449.97
2023-03-23T07:30:09.083Z,99453.56
2023-03-23T07:31:12.596Z,99446.56
2023-03-23T07:32:15.201Z,99449.88
2023-03-23T07:33:18.952Z,99452.81
2023-03-23T07:34:23.515Z,99457.25
2023-03-23T07:35:40.328Z,99457.47
2023-03-23T07:36:46.728Z,99450.78
2023-03-23T07:37:53.301Z,99445.72
2023-03-23T07:39:02.802Z,99459.03
2023-03-23T07:40:15.800Z,99455.63
2023-03-23T07:41:22.249Z,99454.97
2023-03-23T07:42:28.929Z,99461.06
2023-03-23T07:43:35.687Z,99455.19
2023-03-23T07:44:48.471Z,99461.28
2023-03-23T07:45:51.121Z,99454.28
2023-03-23T07:46:54.487Z,99467.84
2023-03-23T07:48:07.348Z,99460.88
2023-03-23T07:49:15.204Z,99466.94
2023-03-23T07:50:28.472Z,99458.31
2023-03-23T07:51:33.934Z,99461.59
2023-03-23T07:52:37.396Z,99471.25
2023-03-23T07:53:41.528Z,99467.34
2023-03-23T07:54:59.053Z,99469.50
2023-03-23T07:56:32.036Z,99470.03
2023-03-23T07:57:48.751Z,99470.56
2023-03-23T07:58:52.646Z,99467.47
2023-03-23T07:59:55.249Z,99471.88
2023-03-23T08:00:58.826Z,99474.66
2023-03-23T08:02:05.053Z,99477.13
2023-03-23T08:03:09.794Z,99474.34
2023-03-23T08:04:22.045Z,99479.28
2023-03-23T08:05:51.438Z,99480.28
2023-03-23T08:07:08.338Z,99480.28
2023-03-23T08:08:20.219Z,99475.25
2023-03-23T08:09:45.261Z,99482.75
2023-03-23T08:11:00.698Z,99481.63
2023-03-23T08:12:39.551Z,99476.59
2023-03-23T08:14:21.446Z,99479.88
2023-03-23T08:16:04.810Z,99487.09
2023-03-23T08:17:25.432Z,99482.03
2023-03-23T08:18:51.412Z,99490.38
2023-03-23T08:20:13.495Z,99493.16
2023-03-23T08:21:34.997Z,99492.03
2023-03-23T08:22:54.931Z,99477.28
2023-03-23T08:24:27.386Z,99482.84
2023-03-23T08:25:40.026Z,99491.19
2023-03-23T08:27:01.433Z,99492.03
2023-03-23T08:28:10.400Z,99488.41
2023-03-23T08:29:51.154Z,99495.63
2023-03-23T08:31:18.205Z,99500.06
2023-03-23T08:32:41.315Z,99499.22
2023-03-23T08:33:52.506Z,99491.72
2023-03-23T08:35:07.464Z,99495.00
2023-03-23T08:36:21.744Z,99500.06
2023-03-23T08:37:36.778Z,99496.97
2023-03-23T08:38:57.669Z,99500.88
2023-03-23T08:40:18.120Z,99506.44
2023-03-23T08:41:46.411Z,99497.78
2023-03-23T08:43:01.296Z,99508.09
2023-03-23T08:44:35.631Z,99485.03
2023-03-23T08:45:55.572Z,99503.66
2023-03-23T08:47:11.826Z,99510.56
2023-03-23T08:48:37.841Z,99506.13
2023-03-23T08:49:58.643Z,99504.19
2023-03-23T08:51:24.968Z,99510.88
2023-03-23T08:52:43.130Z,99508.09
2023-03-23T08:54:05.040Z,99510.88
2023-03-23T08:55:41.512Z,99512.00
2023-03-23T08:57:03.872Z,99514.47
2023-03-23T08:58:24.558Z,99509.22
2023-03-23T08:59:55.354Z,99515.09
2023-03-23T09:01:08.762Z,99514.28
2023-03-23T09:02:32.288Z,99512.31
2023-03-23T09:03:49.722Z,99512.31
2023-03-23T09:05:17.056Z,99514.28
2023-03-23T09:06:37.932Z,99513.97
2023-03-23T09:07:44.458Z,99513.13
2023-03-23T09:08:48.363Z,99515.91
2023-03-23T09:09:51.161Z,99514.78
2023-03-23T09:10:53.455Z,99519.53
2023-03-23T09:11:55.831Z,99517.56
2023-03-23T09:12:58.957Z,99522.31
2023-03-23T09:14:02.635Z,99517.25
2023-03-23T09:15:06.618Z,99516.44
2023-03-23T09:16:09.442Z,99515.31
2023-03-23T09:17:12.340Z,99520.03
2023-03-23T09:18:14.974Z,99518.91
2023-03-23T09:19:17.222Z,99520.88
2023-03-23T09:20:23.198Z,99526.44
2023-03-23T09:21:27.512Z,99525.28
2023-03-23T09:22:30.275Z,99526.44
2023-03-23T09:23:33.000Z,99524.47
2023-03-23T09:24:35.822Z,99528.91
2023-03-23T09:25:38.545Z,99524.16
2023-03-23T09:26:41.197Z,99530.03
2023-03-23T09:27:44.061Z,99526.13
2023-03-23T09:28:47.449Z,99529.72
2023-03-23T09:29:50.112Z,99533.63
2023-03-23T09:30:53.542Z,99535.28
2023-03-23T09:31:57.208Z,99530.56
2023-03-23T09:33:02.492Z,99534.13
2023-03-23T09:34:05.343Z,99536.94
2023-03-23T09:35:14.703Z,99530.22
2023-03-23T09:36:19.171Z,99535.78
2023-03-23T09:37:21.723Z,99534.66
2023-03-23T09:38:24.038Z,99531.56
2023-03-23T09:39:26.576Z,99538.25
2023-03-23T09:40:49.695Z,99537.13
2023-03-23T09:42:02.456Z,99531.56
2023-03-23T09:43:07.502Z,99537.13
2023-03-23T09:44:18.885Z,99538.78
2023-03-23T09:45:49.330Z,99538.78
2023-03-23T09:47:17.146Z,99534.03
2023-03-23T09:48:40.467Z,99533.22
2023-03-23T09:49:49.734Z,99532.06
2023-03-23T09:50:58.397Z,99531.25
2023-03-23T09:52:14.944Z,99530.94
2023-03-23T09:53:22.228Z,99528.47
2023-03-23T09:54:31.628Z,99530.94
2023-03-23T09:55:36.083Z,99529.00
2023-03-23T09:56:38.946Z,99517.53
2023-03-23T09:57:57.489Z,99521.97
2023-03-23T09:59:20.131Z,99526.09
2023-03-23T10:00:31.254Z,99508.56
2023-03-23T10:01:38.737Z,99504.97
2023-03-23T10:02:50.040Z,99513.00
2023-03-23T10:04:01.393Z,99509.91
2023-03-23T10:05:33.722Z,99498.44
2023-03-23T10:06:37.424Z,99499.28
2023-03-23T10:07:40.194Z,99508.13
2023-03-23T10:08:56.863Z,99507.81
2023-03-23T10:10:04.048Z,99511.44
2023-03-23T10:11:25.544Z,99512.75
2023-03-23T10:12:37.239Z,99519.97
2023-03-23T10:13:48.726Z,99519.97
2023-03-23T10:14:59.938Z,99516.88
2023-03-23T10:16:05.042Z,99526.56
2023-03-23T10:17:28.328Z,99517.38
2023-03-23T10:18:38.666Z,99513.97
2023-03-23T10:19:47.782Z,99516.44
2023-03-23T10:20:56.935Z,99510.88
2023-03-23T10:22:07.584Z,99513.34
2023-03-23T10:23:16.959Z,99505.50
2023-03-23T10:24:25.830Z,99517.97
2023-03-23T10:25:35.954Z,99531.56
2023-03-23T10:27:07.791Z,99511.75
2023-03-23T10:28:22.639Z,99523.41
2023-03-23T10:29:31.295Z,99518.66
2023-03-23T10:30:44.433Z,99516.69
2023-03-23T10:31:59.809Z,99518.34
2023-03-23T10:33:27.713Z,99526.38
2023-03-23T10:34:41.725Z,99518.88
2023-03-23T10:35:57.186Z,99516.59
2023-03-23T10:37:09.720Z,99513.81
2023-03-23T10:38:18.863Z,99517.44
2023-03-23T10:39:25.094Z,99523.50
2023-03-23T10:40:30.922Z,99509.28
2023-03-23T10:41:33.298Z,99512.88
2023-03-23T10:42:39.488Z,99506.19
2023-03-23T10:43:42.692Z,99505.84
2023-03-23T10:44:45.016Z,99503.88
2023-03-23T10:46:00.750Z,99501.09
2023-03-23T10:47:07.224Z,99508.31
2023-03-23T10:48:18.721Z,99496.84
2023-03-23T10:49:25.877Z,99500.16
2023-03-23T10:50:33.513Z,99504.06
2023-03-23T10:51:41.191Z,99511.31
2023-03-23T10:52:45.606Z,99509.31
2023-03-23T10:53:57.187Z,99505.72
2023-03-23T10:55:05.092Z,99507.38
2023-03-23T10:56:23.902Z,99503.47
2023-03-23T10:57:30.251Z,99499.53
2023-03-23T10:58:36.620Z,99497.56
2023-03-23T10:59:41.756Z,99506.09
2023-03-23T11:00:48.027Z,99506.41
2023-03-23T11:01:54.411Z,99506.09
2023-03-23T11:03:22.431Z,99502.19
2023-03-23T11:04:25.305Z,99506.59
2023-03-23T11:05:35.228Z,99506.28
2023-03-23T11:06:41.168Z,99515.47
2023-03-23T11:07:52.427Z,99514.31
2023-03-23T11:09:04.552Z,99506.81
2023-03-23T11:10:18.688Z,99510.06
2023-03-23T11:11:39.861Z,99519.28
2023-03-23T11:12:46.440Z,99516.97
2023-03-23T11:13:53.042Z,99514.19
2023-03-23T11:15:25.818Z,99528.13
2023-03-23T11:16:36.096Z,99526.16
2023-03-23T11:17:38.425Z,99524.19
2023-03-23T11:18:46.635Z,99525.84
2023-03-23T11:19:49.722Z,99526.97
2023-03-23T11:20:59.079Z,99519.47
2023-03-23T11:22:24.596Z,99523.38
2023-03-23T11:23:31.265Z,99526.97
2023-03-23T11:24:47.468Z,99525.03
2023-03-23T11:25:57.942Z,99511.41
2023-03-23T11:27:00.966Z,99521.41
2023-03-23T11:28:03.773Z,99512.56
2023-03-23T11:29:15.637Z,99522.06
2023-03-23T11:30:24.182Z,99522.06
2023-03-23T11:31:34.050Z,99517.63
2023-03-23T11:32:39.258Z,99527.13
2023-03-23T11:34:06.324Z,99540.22
2023-03-23T11:35:21.262Z,99531.88
2023-03-23T11:36:31.912Z,99543.00
2023-03-23T11:37:37.018Z,99543.00
2023-03-23T11:38:39.506Z,99551.69
2023-03-23T11:39:50.953Z,99554.47
2023-03-23T11:40:54.191Z,99548.38
2023-03-23T11:42:08.996Z,99543.63
2023-03-23T11:43:20.219Z,99542.00
2023-03-23T11:44:25.101Z,99543.94
2023-03-23T11:45:36.936Z,99547.69
2023-03-23T11:46:55.332Z,99548.81
2023-03-23T11:48:29.434Z,99559.44
2023-03-23T11:49:43.757Z,99556.66
2023-03-23T11:50:58.215Z,99555.84
2023-03-23T11:52:11.358Z,99559.78
2023-03-23T11:53:32.483Z,99555.34
2023-03-23T11:54:41.925Z,99541.72
2023-03-23T11:55:47.308Z,99556.50
2023-03-23T11:56:52.471Z,99555.97
2023-03-23T11:57:59.360Z,99551.84
2023-03-23T11:59:04.055Z,99557.44
2023-03-23T12:00:19.624Z,99556.63
2023-03-23T12:02:01.333Z,99547.22
2023-03-23T12:03:41.662Z,99555.06
2023-03-23T12:05:08.617Z,99548.66
2023-03-23T12:06:13.713Z,99553.94
2023-03-23T12:07:34.032Z,99550.63
2023-03-23T12:09:15.009Z,99543.72
2023-03-23T12:10:40.582Z,99541.25
2023-03-23T12:11:55.353Z,99551.06
2023-03-23T12:13:23.300Z,99543.84
2023-03-23T12:14:59.994Z,99547.75
2023-03-23T12:16:15.568Z,99546.13
2023-03-23T12:17:32.778Z,99532.50
2023-03-23T12:18:49.783Z,99542.81
2023-03-23T12:20:11.744Z,99530.03
2023-03-23T12:21:22.498Z,99537.25
2023-03-23T12:22:50.176Z,99531.16
2023-03-23T12:24:01.271Z,99538.38
2023-03-23T12:25:20.093Z,99533.94
2023-03-23T12:26:46.667Z,99541.16
2023-03-23T12:28:13.830Z,99543.13
2023-03-23T12:29:32.188Z,99535.13
2023-03-23T12:30:50.278Z,99545.41
2023-03-23T12:32:24.954Z,99534.28
2023-03-23T12:33:46.902Z,99542.94
2023-03-23T12:35:03.008Z,99541.81
2023-03-23T12:36:18.826Z,99538.72
2023-03-23T12:37:37.261Z,99540.97
2023-03-23T12:39:21.981Z,99532.63
2023-03-23T12:40:52.466Z,99542.28
2023-03-23T12:42:02.004Z,99528.38
2023-03-23T12:43:19.521Z,99524.78
2023-03-23T12:44:32.655Z,99530.03
2023-03-23T12:45:57.912Z,99526.13
2023-03-23T12:47:21.840Z,99523.03
2023-03-23T12:48:29.844Z,99518.28
2023-03-23T12:49:38.849Z,99529.59
2023-03-23T12:51:09.435Z,99522.41
2023-03-23T12:52:30.177Z,99520.75
2023-03-23T12:53:38.037Z,99531.56
2023-03-23T12:55:06.264Z,99526.00
2023-03-23T12:56:27.270Z,99525.69
2023-03-23T12:57:56.544Z,99520.13
2023-03-23T12:59:13.666Z,99527.34
2023-03-23T13:00:24.681Z,99526.50
2023-03-23T13:02:41.863Z,99533.22
2023-03-23T13:04:11.076Z,99527.34
2023-03-23T13:05:41.255Z,99541.75
2023-03-23T13:06:47.397Z,99538.66
2023-03-23T13:08:02.177Z,99542.81
2023-03-23T13:09:04.968Z,99536.94
2023-03-23T13:10:39.715Z,99537.41
2023-03-23T13:11:45.199Z,99529.59
2023-03-23T13:12:50.118Z,99535.16
2023-03-23T13:14:00.691Z,99535.69
2023-03-23T13:15:09.088Z,99537.00
2023-03-23T13:16:27.722Z,99525.22
2023-03-23T13:17:35.804Z,99535.22
2023-03-23T13:19:02.765Z,99525.91
2023-03-23T13:20:34.633Z,99520.22
2023-03-23T13:21:52.924Z,99516.81
2023-03-23T13:23:17.180Z,99518.13
2023-03-23T13:24:23.075Z,99522.25
2023-03-23T13:25:54.281Z,99520.78
2023-03-23T13:26:59.293Z,99522.94
2023-03-23T13:28:05.091Z,99520.63
2023-03-23T13:29:15.588Z,99508.34
2023-03-23T13:30:23.021Z,99508.88
2023-03-23T13:31:32.793Z,99504.13
2023-03-23T13:32:46.581Z,99497.59
2023-03-23T13:33:54.470Z,99496.47
2023-03-23T13:34:57.647Z,99488.91
2023-03-23T13:36:13.374Z,99489.25
2023-03-23T13:37:19.394Z,99481.69
2023-03-23T13:38:27.461Z,99477.78
2023-03-23T13:39:32.508Z,99464.66
2023-03-23T13:40:35.444Z,99480.22
2023-03-23T13:41:49.313Z,99474.66
2023-03-23T13:43:00.271Z,99479.91
2023-03-23T13:44:18.397Z,99469.28
2023-03-23T13:45:34.309Z,99481.22
2023-03-23T13:46:36.981Z,99480.09
2023-03-23T13:47:42.733Z,99473.06
2023-03-23T13:48:52.704Z,99475.84
2023-03-23T13:49:56.214Z,99465.53
2023-03-23T13:51:01.321Z,99472.72
2023-03-23T13:52:17.993Z,99463.25
2023-03-23T13:53:49.766Z,99461.25